createdAt,value
2018-11-06T00:01:13.107Z,5.65
2018-11-06T00:03:46.750Z,5.61
2018-11-06T00:06:14.907Z,5.64
2018-11-06T00:08:43.054Z,5.66
2018-11-06T00:11:12.111Z,5.55
2018-11-06T00:13:40.270Z,5.39
2018-11-06T00:16:09.275Z,5.32
2018-11-06T00:18:37.425Z,5.27
2018-11-06T00:21:05.750Z,5.32
2018-11-06T00:23:33.870Z,5.34
2018-11-06T00:26:02.061Z,5.37
2018-11-06T00:28:30.219Z,5.40
2018-11-06T00:30:58.371Z,5.45
2018-11-06T00:33:26.539Z,5.48
2018-11-06T00:35:54.663Z,5.57
2018-11-06T00:38:22.861Z,5.71
2018-11-06T00:40:51.122Z,5.88
2018-11-06T00:43:19.334Z,6.03
2018-11-06T00:45:47.486Z,5.99
2018-11-06T00:48:15.654Z,5.99
2018-11-06T00:50:43.784Z,5.85
2018-11-06T00:53:11.997Z,5.86
2018-11-06T00:55:40.126Z,5.93
2018-11-06T00:58:08.266Z,5.87
2018-11-06T01:00:36.446Z,5.89
2018-11-06T01:03:04.658Z,5.82
2018-11-06T01:05:32.800Z,5.82
2018-11-06T01:08:01.079Z,5.88
2018-11-06T01:10:29.241Z,6.05
2018-11-06T01:12:57.569Z,6.11
2018-11-06T01:15:25.738Z,6.11
2018-11-06T01:17:53.890Z,6.11
2018-11-06T01:20:22.086Z,6.39
2018-11-06T01:22:50.237Z,6.44
2018-11-06T01:25:18.390Z,6.33
2018-11-06T01:27:46.621Z,6.33
2018-11-06T01:30:17.141Z,6.28
2018-11-06T01:32:46.563Z,6.31
2018-11-06T01:35:15.231Z,6.32
2018-11-06T01:37:44.022Z,6.33
2018-11-06T01:40:14.407Z,6.37
2018-11-06T01:42:43.226Z,6.35
2018-11-06T01:45:13.670Z,6.42
2018-11-06T01:47:42.033Z,6.37
2018-11-06T01:50:12.556Z,6.29
2018-11-06T01:52:41.286Z,6.46
2018-11-06T01:55:10.660Z,6.43
2018-11-06T01:57:38.814Z,6.36
2018-11-06T02:00:10.266Z,6.19
2018-11-06T02:02:38.406Z,5.80
2018-11-06T02:05:07.638Z,5.68
2018-11-06T02:07:35.804Z,5.60
2018-11-06T02:10:03.997Z,5.45
2018-11-06T02:12:32.146Z,5.47
2018-11-06T02:15:00.771Z,5.43
2018-11-06T02:17:28.913Z,5.43
2018-11-06T02:19:57.086Z,5.41
2018-11-06T02:22:25.226Z,5.37
2018-11-06T02:24:53.365Z,5.41
2018-11-06T02:27:21.491Z,5.41
2018-11-06T02:29:49.626Z,5.44
2018-11-06T02:32:18.726Z,5.69
2018-11-06T02:34:46.818Z,5.80
2018-11-06T02:37:14.957Z,5.93
2018-11-06T02:39:43.090Z,5.90
2018-11-06T02:42:11.781Z,6.05
2018-11-06T02:44:39.938Z,6.06
2018-11-06T02:47:08.330Z,6.14
2018-11-06T02:49:36.508Z,6.20
2018-11-06T02:52:04.708Z,6.21
2018-11-06T02:54:32.954Z,6.36
2018-11-06T02:57:01.111Z,6.42
2018-11-06T02:59:29.248Z,6.32
2018-11-06T03:01:57.435Z,6.34
2018-11-06T03:04:25.581Z,6.31
2018-11-06T03:06:53.710Z,6.55
2018-11-06T03:09:21.879Z,6.34
2018-11-06T03:11:50.014Z,6.34
2018-11-06T03:14:18.166Z,6.36
2018-11-06T03:16:47.301Z,6.39
2018-11-06T03:19:15.571Z,6.29
2018-11-06T03:21:43.738Z,6.20
2018-11-06T03:24:12.096Z,6.16
2018-11-06T03:26:40.236Z,6.08
2018-11-06T03:29:08.399Z,6.00
2018-11-06T03:31:36.537Z,5.76
2018-11-06T03:34:04.702Z,5.62
2018-11-06T03:36:32.861Z,5.59
2018-11-06T03:39:01.039Z,5.36
2018-11-06T03:41:29.190Z,5.09
2018-11-06T03:43:57.361Z,5.00
2018-11-06T03:46:25.487Z,5.06
2018-11-06T03:48:53.712Z,5.09
2018-11-06T03:51:21.912Z,5.01
2018-11-06T03:53:50.069Z,5.00
2018-11-06T03:56:18.226Z,4.96
2018-11-06T03:58:46.350Z,4.86
2018-11-06T04:01:14.572Z,4.94
2018-11-06T04:03:43.851Z,5.07
2018-11-06T04:06:12.078Z,5.17
2018-11-06T04:08:40.246Z,5.26
2018-11-06T04:11:08.710Z,5.35
2018-11-06T04:13:36.847Z,5.37
2018-11-06T04:16:05.001Z,5.40
2018-11-06T04:18:34.027Z,5.52
2018-11-06T04:21:02.167Z,5.32
2018-11-06T04:23:31.083Z,5.08
2018-11-06T04:25:59.466Z,4.97
2018-11-06T04:28:27.735Z,5.15
2018-11-06T04:30:55.886Z,5.12
2018-11-06T04:33:24.106Z,5.04
2018-11-06T04:35:52.274Z,5.17
2018-11-06T04:38:20.408Z,5.13
2018-11-06T04:40:48.549Z,5.13
2018-11-06T04:43:16.706Z,5.09
2018-11-06T04:45:44.840Z,5.00
2018-11-06T04:48:13.031Z,5.02
2018-11-06T04:50:41.182Z,5.03
2018-11-06T04:53:09.324Z,5.05
2018-11-06T04:55:37.472Z,5.04
2018-11-06T04:58:05.595Z,4.99
2018-11-06T05:00:33.730Z,5.03
2018-11-06T05:03:01.893Z,5.02
2018-11-06T05:05:30.067Z,5.04
2018-11-06T05:07:58.219Z,5.22
2018-11-06T05:10:26.609Z,5.09
2018-11-06T05:12:54.722Z,4.99
2018-11-06T05:15:22.880Z,5.09
2018-11-06T05:17:51.022Z,5.13
2018-11-06T05:20:19.260Z,5.08
2018-11-06T05:22:47.857Z,5.19
2018-11-06T05:25:16.268Z,5.02
2018-11-06T05:27:44.415Z,5.15
2018-11-06T05:30:12.898Z,5.32
2018-11-06T05:32:42.421Z,5.33
2018-11-06T05:35:11.177Z,5.32
2018-11-06T05:37:39.557Z,5.33
2018-11-06T05:40:19.101Z,5.05
2018-11-06T05:42:47.242Z,5.03
2018-11-06T05:45:15.401Z,4.90
2018-11-06T05:47:43.542Z,4.98
2018-11-06T05:50:11.681Z,5.00
2018-11-06T05:52:39.822Z,5.04
2018-11-06T05:55:08.046Z,5.09
2018-11-06T05:57:36.359Z,5.14
2018-11-06T06:00:05.466Z,5.14
2018-11-06T06:02:33.616Z,5.03
2018-11-06T06:05:01.783Z,5.02
2018-11-06T06:07:29.979Z,5.04
2018-11-06T06:09:58.215Z,5.08
2018-11-06T06:12:26.366Z,5.15
2018-11-06T06:14:54.518Z,5.17
2018-11-06T06:17:22.703Z,5.08
2018-11-06T06:19:50.827Z,4.99
2018-11-06T06:22:19.114Z,4.95
2018-11-06T06:24:47.222Z,4.98
2018-11-06T06:27:15.371Z,4.86
2018-11-06T06:29:43.526Z,4.67
2018-11-06T06:32:11.650Z,4.68
2018-11-06T06:34:40.640Z,4.64
2018-11-06T06:37:08.727Z,4.47
2018-11-06T06:39:37.101Z,4.39
2018-11-06T06:42:05.715Z,4.42
2018-11-06T06:44:33.883Z,4.35
2018-11-06T06:47:03.053Z,4.31
2018-11-06T06:49:31.204Z,4.34
2018-11-06T06:51:59.411Z,4.47
2018-11-06T06:54:27.669Z,4.62
2018-11-06T06:56:55.815Z,4.71
2018-11-06T06:59:24.023Z,4.71
2018-11-06T07:01:52.210Z,4.73
2018-11-06T07:04:20.334Z,4.71
2018-11-06T07:06:49.822Z,4.74
2018-11-06T07:09:17.973Z,4.76
2018-11-06T07:11:46.426Z,4.63
2018-11-06T07:14:14.839Z,4.38
2018-11-06T07:16:43.547Z,4.31
2018-11-06T07:19:11.878Z,4.43
2018-11-06T07:21:40.050Z,4.53
2018-11-06T07:24:08.741Z,4.55
2018-11-06T07:26:36.886Z,4.58
2018-11-06T07:29:05.201Z,4.65
2018-11-06T07:31:33.348Z,4.78
2018-11-06T07:34:01.482Z,5.14
2018-11-06T07:36:29.637Z,5.21
2018-11-06T07:38:57.791Z,5.17
2018-11-06T07:41:25.944Z,5.11
2018-11-06T07:43:54.082Z,5.12
2018-11-06T07:46:22.288Z,5.09
2018-11-06T07:48:50.457Z,4.94
2018-11-06T07:51:18.626Z,4.94
2018-11-06T07:53:46.806Z,4.91
2018-11-06T07:56:15.004Z,5.04
2018-11-06T07:58:43.121Z,5.15
2018-11-06T08:01:11.646Z,5.38
2018-11-06T08:03:39.820Z,5.47
2018-11-06T08:06:07.993Z,5.28
2018-11-06T08:08:36.146Z,5.39
2018-11-06T08:11:04.316Z,5.52
2018-11-06T08:13:32.470Z,5.59
2018-11-06T08:16:00.602Z,5.52
2018-11-06T08:18:28.774Z,5.57
2018-11-06T08:20:56.864Z,5.69
2018-11-06T08:23:25.082Z,5.87
2018-11-06T08:25:54.058Z,6.19
2018-11-06T08:28:22.198Z,6.14
2018-11-06T08:30:50.500Z,6.05
2018-11-06T08:33:18.430Z,6.11
2018-11-06T08:35:46.549Z,6.18
2018-11-06T08:38:14.733Z,6.33
2018-11-06T08:40:42.841Z,6.49
2018-11-06T08:43:10.955Z,6.52
2018-11-06T08:45:39.077Z,6.55
2018-11-06T08:48:07.226Z,6.71
2018-11-06T08:50:35.298Z,6.83
2018-11-06T08:53:04.393Z,6.98
2018-11-06T08:55:32.661Z,7.13
2018-11-06T08:58:00.621Z,7.26
2018-11-06T09:00:28.751Z,6.96
2018-11-06T09:02:56.858Z,6.51
2018-11-06T09:05:25.033Z,6.53
2018-11-06T09:07:53.210Z,6.59
2018-11-06T09:10:21.941Z,6.05
2018-11-06T09:12:50.031Z,6.13
2018-11-06T09:15:18.182Z,6.12
2018-11-06T09:17:46.336Z,6.34
2018-11-06T09:20:15.622Z,6.47
2018-11-06T09:22:43.789Z,6.74
2018-11-06T09:25:13.199Z,6.89
2018-11-06T09:27:42.402Z,7.08
2018-11-06T09:30:12.842Z,7.11
2018-11-06T09:32:40.981Z,6.81
2018-11-06T09:35:10.227Z,7.27
2018-11-06T09:37:39.205Z,7.32
2018-11-06T09:40:08.853Z,7.40
2018-11-06T09:42:37.115Z,7.84
2018-11-06T09:45:05.348Z,8.06
2018-11-06T09:47:33.417Z,8.70
2018-11-06T09:50:01.530Z,8.81
2018-11-06T09:52:29.743Z,8.76
2018-11-06T09:54:57.850Z,8.94
2018-11-06T09:57:26.014Z,9.47
2018-11-06T09:59:54.126Z,9.26
2018-11-06T10:02:22.338Z,9.37
2018-11-06T10:04:50.457Z,9.74
2018-11-06T10:07:18.804Z,9.55
2018-11-06T10:09:46.666Z,9.42
2018-11-06T10:12:14.789Z,9.06
2018-11-06T10:14:42.901Z,8.66
2018-11-06T10:17:11.015Z,8.30
2018-11-06T10:19:39.160Z,8.44
2018-11-06T10:22:07.284Z,8.66
2018-11-06T10:24:35.409Z,9.03
2018-11-06T10:27:03.531Z,9.25
2018-11-06T10:29:32.548Z,9.40
2018-11-06T10:32:00.669Z,9.54
2018-11-06T10:34:28.790Z,10.00
2018-11-06T10:36:56.920Z,10.38
2018-11-06T10:39:25.012Z,10.64
2018-11-06T10:41:53.234Z,10.62
2018-11-06T10:44:21.346Z,10.70
2018-11-06T10:46:49.465Z,11.32
2018-11-06T10:49:17.594Z,11.34
2018-11-06T10:51:45.885Z,11.82
2018-11-06T10:54:13.948Z,11.98
2018-11-06T10:56:42.065Z,12.26
2018-11-06T10:59:10.189Z,12.25
2018-11-06T11:01:43.717Z,12.32
2018-11-06T11:04:23.804Z,12.32
2018-11-06T11:06:52.190Z,12.16
2018-11-06T11:09:20.297Z,12.01
2018-11-06T11:11:48.409Z,11.72
2018-11-06T11:14:16.522Z,11.61
2018-11-06T11:16:44.629Z,11.65
2018-11-06T11:19:12.731Z,11.65
2018-11-06T11:21:40.903Z,11.69
2018-11-06T11:24:08.996Z,11.39
2018-11-06T11:26:37.109Z,11.53
2018-11-06T11:29:05.427Z,11.32
2018-11-06T11:31:33.782Z,11.70
2018-11-06T11:34:01.889Z,11.89
2018-11-06T11:36:30.025Z,11.75
2018-11-06T11:38:58.421Z,11.68
2018-11-06T11:41:26.606Z,11.72
2018-11-06T11:43:55.002Z,12.11
2018-11-06T11:46:23.255Z,12.55
2018-11-06T11:48:51.528Z,12.69
2018-11-06T11:51:19.823Z,12.67
2018-11-06T11:53:47.925Z,12.43
2018-11-06T11:56:16.121Z,12.69
2018-11-06T11:58:47.001Z,12.91
2018-11-06T12:01:15.110Z,12.88
2018-11-06T12:03:43.202Z,12.63
2018-11-06T12:06:11.401Z,12.50
2018-11-06T12:08:39.513Z,13.09
2018-11-06T12:11:08.017Z,13.43
2018-11-06T12:13:36.202Z,13.65
2018-11-06T12:16:04.392Z,13.74
2018-11-06T12:18:32.523Z,13.85
2018-11-06T12:21:00.631Z,14.30
2018-11-06T12:23:28.740Z,14.68
2018-11-06T12:25:56.954Z,14.91
2018-11-06T12:28:25.063Z,15.04
2018-11-06T12:30:53.182Z,15.08
2018-11-06T12:33:21.706Z,15.16
2018-11-06T12:35:49.885Z,15.24
2018-11-06T12:38:18.010Z,15.50
2018-11-06T12:40:46.125Z,15.38
2018-11-06T12:43:14.287Z,15.33
2018-11-06T12:45:42.367Z,15.21
2018-11-06T12:48:10.541Z,15.22
2018-11-06T12:50:38.635Z,15.44
2018-11-06T12:53:06.782Z,15.73
2018-11-06T12:55:35.286Z,15.90
2018-11-06T12:58:03.402Z,15.74
2018-11-06T13:00:31.514Z,15.81
2018-11-06T13:03:00.105Z,15.84
2018-11-06T13:05:28.230Z,15.72
2018-11-06T13:07:56.337Z,15.82
2018-11-06T13:10:24.455Z,15.78
2018-11-06T13:12:52.573Z,15.71
2018-11-06T13:15:20.712Z,15.74
2018-11-06T13:17:48.822Z,15.65
2018-11-06T13:20:17.206Z,15.73
2018-11-06T13:22:45.811Z,15.65
2018-11-06T13:25:13.911Z,15.78
2018-11-06T13:27:42.462Z,15.73
2018-11-06T13:30:15.368Z,15.75
2018-11-06T13:32:45.357Z,15.63
2018-11-06T13:35:13.493Z,15.69
2018-11-06T13:37:41.841Z,15.65
2018-11-06T13:40:12.330Z,15.43
2018-11-06T13:42:40.519Z,15.39
2018-11-06T13:45:11.283Z,15.02
2018-11-06T13:47:39.262Z,14.86
2018-11-06T13:50:08.072Z,15.01
2018-11-06T13:52:36.482Z,15.20
2018-11-06T13:55:04.618Z,15.48
2018-11-06T13:57:32.742Z,15.60
2018-11-06T14:00:00.877Z,15.70
2018-11-06T14:02:29.029Z,15.79
2018-11-06T14:04:57.141Z,15.79
2018-11-06T14:07:25.242Z,15.81
2018-11-06T14:09:53.650Z,15.81
2018-11-06T14:12:21.757Z,15.72
2018-11-06T14:14:50.344Z,15.67
2018-11-06T14:17:18.432Z,15.63
2018-11-06T14:19:46.533Z,15.24
2018-11-06T14:22:14.661Z,15.17
2018-11-06T14:24:42.796Z,14.99
2018-11-06T14:27:10.998Z,14.92
2018-11-06T14:29:39.014Z,14.99
2018-11-06T14:32:07.260Z,15.16
2018-11-06T14:34:35.416Z,15.31
2018-11-06T14:37:03.529Z,15.39
2018-11-06T14:39:31.642Z,15.41
2018-11-06T14:41:59.771Z,14.98
2018-11-06T14:44:27.893Z,15.00
2018-11-06T14:46:56.069Z,15.08
2018-11-06T14:49:24.230Z,15.13
2018-11-06T14:51:52.294Z,15.21
2018-11-06T14:54:20.455Z,15.27
2018-11-06T14:56:48.603Z,15.25
2018-11-06T14:59:16.838Z,15.22
2018-11-06T15:02:05.161Z,15.32
2018-11-06T15:04:33.550Z,15.21
2018-11-06T15:07:01.670Z,15.12
2018-11-06T15:09:29.772Z,15.14
2018-11-06T15:11:57.892Z,15.06
2018-11-06T15:14:26.580Z,14.84
2018-11-06T15:16:54.677Z,14.84
2018-11-06T15:19:22.899Z,14.96
2018-11-06T15:21:51.038Z,14.86
2018-11-06T15:24:19.149Z,14.71
2018-11-06T15:26:47.248Z,14.68
2018-11-06T15:29:15.366Z,14.47
2018-11-06T15:31:43.491Z,14.13
2018-11-06T15:34:12.977Z,14.14
2018-11-06T15:36:41.130Z,14.20
2018-11-06T15:39:09.644Z,14.26
2018-11-06T15:41:38.645Z,14.23
2018-11-06T15:44:06.653Z,13.90
2018-11-06T15:46:35.083Z,13.72
2018-11-06T15:49:03.224Z,13.63
2018-11-06T15:51:31.525Z,13.22
2018-11-06T15:53:59.641Z,13.18
2018-11-06T15:56:27.889Z,12.94
2018-11-06T15:58:56.002Z,12.69
2018-11-06T16:01:25.539Z,12.76
2018-11-06T16:03:53.683Z,12.74
2018-11-06T16:06:21.929Z,12.80
2018-11-06T16:08:50.269Z,12.66
2018-11-06T16:11:18.400Z,12.38
2018-11-06T16:13:46.645Z,12.21
2018-11-06T16:16:14.758Z,12.03
2018-11-06T16:18:42.905Z,12.01
2018-11-06T16:21:11.018Z,11.92
2018-11-06T16:23:39.130Z,11.75
2018-11-06T16:26:07.272Z,11.83
2018-11-06T16:28:35.394Z,11.91
2018-11-06T16:31:03.490Z,11.71
2018-11-06T16:33:31.643Z,11.81
2018-11-06T16:36:00.362Z,11.67
2018-11-06T16:38:28.463Z,11.58
2018-11-06T16:40:56.619Z,11.51
2018-11-06T16:43:24.731Z,11.23
2018-11-06T16:45:52.838Z,11.39
2018-11-06T16:48:21.500Z,11.39
2018-11-06T16:50:49.569Z,11.45
2018-11-06T16:53:17.686Z,11.58
2018-11-06T16:55:45.820Z,11.38
2018-11-06T16:58:13.923Z,10.99
2018-11-06T17:00:42.130Z,10.85
2018-11-06T17:03:10.169Z,10.84
2018-11-06T17:05:38.385Z,10.79
2018-11-06T17:08:06.509Z,10.75
2018-11-06T17:10:34.679Z,10.69
2018-11-06T17:13:02.816Z,10.57
2018-11-06T17:15:30.938Z,10.54
2018-11-06T17:17:59.079Z,10.57
2018-11-06T17:20:27.202Z,10.48
2018-11-06T17:22:55.320Z,10.57
2018-11-06T17:25:24.094Z,10.49
2018-11-06T17:27:52.209Z,9.84
2018-11-06T17:30:20.502Z,9.86
2018-11-06T17:32:48.706Z,9.84
2018-11-06T17:35:17.999Z,9.95
2018-11-06T17:37:46.643Z,10.01
2018-11-06T17:40:16.946Z,9.97
2018-11-06T17:42:45.191Z,9.90
2018-11-06T17:45:21.443Z,9.53
2018-11-06T17:47:49.492Z,9.45
2018-11-06T17:50:17.902Z,9.47
2018-11-06T17:52:46.202Z,9.52
2018-11-06T17:55:16.048Z,9.63
2018-11-06T17:57:43.959Z,9.58
2018-11-06T18:00:18.530Z,9.53
2018-11-06T18:02:46.941Z,9.35
2018-11-06T18:05:15.821Z,9.34
2018-11-06T18:07:44.314Z,9.14
2018-11-06T18:10:13.919Z,9.08
2018-11-06T18:12:42.205Z,8.90
2018-11-06T18:15:10.368Z,8.73
2018-11-06T18:17:43.287Z,8.60
2018-11-06T18:20:12.607Z,8.76
2018-11-06T18:22:44.705Z,8.85
2018-11-06T18:25:16.258Z,9.00
2018-11-06T18:27:45.164Z,9.08
2018-11-06T18:30:15.446Z,9.14
2018-11-06T18:32:43.549Z,9.18
2018-11-06T18:35:15.941Z,9.14
2018-11-06T18:37:46.269Z,9.06
2018-11-06T18:40:17.746Z,8.99
2018-11-06T18:42:47.867Z,8.86
2018-11-06T18:45:17.156Z,8.41
2018-11-06T18:47:46.697Z,8.34
2018-11-06T18:50:16.050Z,8.17
2018-11-06T18:52:47.192Z,8.01
2018-11-06T18:55:17.354Z,7.63
2018-11-06T18:57:45.573Z,7.78
2018-11-06T19:00:17.113Z,7.82
2018-11-06T19:02:46.431Z,8.04
2018-11-06T19:05:15.195Z,8.25
2018-11-06T19:07:43.375Z,8.32
2018-11-06T19:10:13.193Z,8.03
2018-11-06T19:12:41.496Z,7.63
2018-11-06T19:15:13.114Z,7.56
2018-11-06T19:17:41.709Z,7.71
2018-11-06T19:20:10.586Z,7.76
2018-11-06T19:22:38.873Z,7.88
2018-11-06T19:25:08.114Z,8.30
2018-11-06T19:27:36.325Z,8.47
2018-11-06T19:30:05.967Z,8.57
2018-11-06T19:32:34.073Z,8.41
2018-11-06T19:35:02.184Z,7.90
2018-11-06T19:37:31.482Z,7.98
2018-11-06T19:39:59.601Z,8.01
2018-11-06T19:42:27.853Z,8.21
2018-11-06T19:44:56.029Z,8.27
2018-11-06T19:47:24.219Z,8.19
2018-11-06T19:49:52.611Z,7.74
2018-11-06T19:52:20.692Z,7.65
2018-11-06T19:54:48.801Z,7.75
2018-11-06T19:57:16.918Z,7.78
2018-11-06T19:59:45.125Z,7.78
2018-11-06T20:02:13.262Z,7.68
2018-11-06T20:04:41.387Z,7.67
2018-11-06T20:07:09.595Z,7.59
2018-11-06T20:09:37.713Z,7.64
2018-11-06T20:12:06.984Z,7.72
2018-11-06T20:14:35.058Z,7.80
2018-11-06T20:17:03.241Z,7.60
2018-11-06T20:19:31.405Z,7.37
2018-11-06T20:21:59.625Z,7.29
2018-11-06T20:24:27.733Z,7.30
2018-11-06T20:26:55.894Z,7.34
2018-11-06T20:29:24.000Z,7.31
2018-11-06T20:31:52.106Z,7.75
2018-11-06T20:34:20.286Z,8.07
2018-11-06T20:36:48.402Z,7.97
2018-11-06T20:39:16.526Z,7.75
2018-11-06T20:41:45.426Z,7.71
2018-11-06T20:44:13.539Z,7.67
2018-11-06T20:46:41.745Z,7.19
2018-11-06T20:49:09.997Z,7.17
2018-11-06T20:51:38.077Z,6.93
2018-11-06T20:54:06.265Z,6.85
2018-11-06T20:56:35.208Z,6.86
2018-11-06T20:59:03.314Z,6.75
2018-11-06T21:01:31.506Z,6.71
2018-11-06T21:03:59.742Z,6.71
2018-11-06T21:06:27.873Z,6.66
2018-11-06T21:08:56.029Z,6.86
2018-11-06T21:11:24.710Z,7.13
2018-11-06T21:13:52.894Z,7.26
2018-11-06T21:16:21.000Z,7.13
2018-11-06T21:18:49.214Z,6.75
2018-11-06T21:21:17.330Z,6.68
2018-11-06T21:23:45.434Z,6.70
2018-11-06T21:26:13.824Z,6.51
2018-11-06T21:28:41.715Z,6.45
2018-11-06T21:31:09.816Z,6.46
2018-11-06T21:33:37.965Z,6.49
2018-11-06T21:36:06.147Z,6.52
2018-11-06T21:38:34.310Z,6.77
2018-11-06T21:41:02.473Z,6.71
2018-11-06T21:43:30.646Z,6.59
2018-11-06T21:45:58.749Z,6.48
2018-11-06T21:48:26.933Z,6.41
2018-11-06T21:50:55.017Z,6.45
2018-11-06T21:53:23.149Z,6.63
2018-11-06T21:55:51.321Z,6.68
2018-11-06T21:58:19.508Z,6.82
2018-11-06T22:00:47.794Z,6.64
2018-11-06T22:03:15.835Z,6.35
2018-11-06T22:05:43.957Z,5.90
2018-11-06T22:08:12.117Z,5.78
2018-11-06T22:10:40.231Z,5.80
2018-11-06T22:13:08.468Z,5.96
2018-11-06T22:15:36.541Z,6.05
2018-11-06T22:18:04.697Z,6.25
2018-11-06T22:20:32.806Z,6.32
2018-11-06T22:23:00.941Z,6.39
2018-11-06T22:25:29.039Z,6.10
2018-11-06T22:27:57.161Z,5.98
2018-11-06T22:30:29.271Z,5.98
2018-11-06T22:32:58.994Z,6.33
2018-11-06T22:35:27.110Z,6.55
2018-11-06T22:37:59.737Z,6.51
2018-11-06T22:40:27.849Z,6.70
2018-11-06T22:42:56.041Z,6.63
2018-11-06T22:45:24.284Z,6.46
2018-11-06T22:47:52.383Z,6.34
2018-11-06T22:50:20.617Z,6.21
2018-11-06T22:52:49.293Z,6.20
2018-11-06T22:55:17.581Z,6.15
2018-11-06T22:57:46.525Z,6.06
2018-11-06T23:00:17.274Z,6.16
2018-11-06T23:02:45.663Z,6.35
2018-11-06T23:05:14.453Z,6.32
2018-11-06T23:07:48.106Z,6.27
2018-11-06T23:10:16.230Z,6.10
2018-11-06T23:12:44.358Z,6.15
2018-11-06T23:15:12.530Z,6.09
2018-11-06T23:17:40.704Z,6.06
2018-11-06T23:20:09.483Z,6.04
2018-11-06T23:22:37.541Z,5.98
2018-11-06T23:25:06.138Z,6.19
2018-11-06T23:27:34.194Z,6.42
2018-11-06T23:30:02.415Z,6.43
2018-11-06T23:32:30.542Z,6.58
2018-11-06T23:34:58.649Z,6.55
2018-11-06T23:37:26.780Z,6.57
2018-11-06T23:39:54.918Z,6.51
2018-11-06T23:42:23.025Z,6.32
2018-11-06T23:44:51.149Z,6.00
2018-11-06T23:47:19.820Z,5.66
2018-11-06T23:49:47.921Z,5.69
2018-11-06T23:52:16.022Z,5.77
2018-11-06T23:54:44.146Z,6.02
2018-11-06T23:57:12.342Z,6.38
2018-11-06T23:59:40.436Z,6.43
